This is the latest recevied weather packets stored in our database for station/object K7LDN-13. If no packets are shown the sender has not sent any weather packets the latest 10 day(s).
| Time | Temp. | Humidity | Pressure | Rain* | Wind** | Luminosity | Snow |
|---|---|---|---|---|---|---|---|
| 1777828597 | 20.56° C | 24% | 1018.6 hPa | 0 mm | - | 778 W/m² | - |
| 1777828295 | 20.56° C | 25% | 1018.6 hPa | 0 mm | - | 725 W/m² | - |
| 1777827992 | 20° C | 25% | 1018.6 hPa | 0 mm | - | 745 W/m² | - |
| 1777827689 | 20° C | 25% | 1018.6 hPa | 0 mm | - | 726 W/m² | - |
| 1777827386 | 19.44° C | 26% | 1018.7 hPa | 0 mm | - | 660 W/m² | - |
| 1777827082 | 19.44° C | 26% | 1018.6 hPa | 0 mm | - | 628 W/m² | - |
| 1777826779 | 18.89° C | 25% | 1018.6 hPa | 0 mm | - | 587 W/m² | - |
| 1777826476 | 18.89° C | 25% | 1018.7 hPa | 0 mm | - | 534 W/m² | - |
| 1777826173 | 18.33° C | 24% | 1018.8 hPa | 0 mm | - | 435 W/m² | - |
| 1777825870 | 18.89° C | 24% | 1018.7 hPa | 0 mm | - | 474 W/m² | - |
| 1777825567 | 18.89° C | 25% | 1018.8 hPa | 0 mm | - | 520 W/m² | - |
| 1777825265 | 18.33° C | 26% | 1019 hPa | 0 mm | - | 564 W/m² | - |
| 1777824962 | 18.33° C | 25% | 1018.9 hPa | 0 mm | - | 515 W/m² | - |
| 1777824657 | 17.78° C | 26% | 1018.9 hPa | 0 mm | - | 457 W/m² | - |
| 1777824355 | 17.78° C | 27% | 1018.8 hPa | 0 mm | - | 434 W/m² | - |
| 1777824050 | 17.78° C | 27% | 1018.8 hPa | 0 mm | - | 422 W/m² | - |
| 1777823747 | 17.22° C | 28% | 1019 hPa | 0 mm | - | 420 W/m² | - |
| 1777823444 | 17.22° C | 27% | 1019.1 hPa | 0 mm | - | 448 W/m² | - |
| 1777823141 | 17.22° C | 30% | 1018.9 hPa | 0 mm | - | 506 W/m² | - |
| 1777822839 | 17.22° C | 30% | 1019 hPa | 0 mm | - | 486 W/m² | - |
| 1777822537 | 17.22° C | 29% | 1019 hPa | 0 mm | - | 484 W/m² | - |
| 1777822234 | 16.67° C | 30% | 1019.1 hPa | 0 mm | - | 461 W/m² | - |
| 1777821932 | 16.11° C | 35% | 1019.1 hPa | 0 mm | - | 459 W/m² | - |
| 1777821629 | 15° C | 40% | 1019.3 hPa | 0 mm | - | 439 W/m² | - |
| 1777821328 | 15° C | 40% | 1019.4 hPa | 0 mm | - | 383 W/m² | - |
* Rain latest hour (hover to see other rain measurements)
** Current wind speed in m/s (hover to see current wind gust speed)